createdAt,value
2024-04-30T00:04:03.132Z,10.16
2024-04-30T00:14:02.966Z,10.03
2024-04-30T00:24:02.911Z,9.98
2024-04-30T00:34:02.989Z,9.89
2024-04-30T00:44:02.896Z,9.62
2024-04-30T00:54:02.907Z,9.33
2024-04-30T01:04:02.890Z,9.1
2024-04-30T01:14:02.952Z,9.05
2024-04-30T01:24:02.939Z,9.08
2024-04-30T01:34:02.928Z,9.02
2024-04-30T01:44:02.945Z,8.8
2024-04-30T01:54:03.049Z,8.54
2024-04-30T02:04:02.845Z,8.33
2024-04-30T02:14:03.061Z,8.2
2024-04-30T02:24:02.908Z,8.16
2024-04-30T02:34:02.801Z,8.11
2024-04-30T02:44:02.912Z,7.92
2024-04-30T02:54:02.800Z,7.93
2024-04-30T03:04:03.067Z,7.93
2024-04-30T03:14:02.793Z,7.88
2024-04-30T03:24:02.811Z,7.7
2024-04-30T03:34:02.903Z,7.66
2024-04-30T03:44:02.942Z,7.52
2024-04-30T03:54:02.842Z,7.46
2024-04-30T04:04:02.901Z,7.48
2024-04-30T04:14:02.808Z,7.64
2024-04-30T04:24:02.805Z,7.76
2024-04-30T04:34:02.969Z,7.93
2024-04-30T04:44:02.873Z,8.05
2024-04-30T04:54:02.877Z,8.59
2024-04-30T05:04:02.836Z,9.54
2024-04-30T05:14:02.773Z,9.54
2024-04-30T05:24:02.751Z,9.83
2024-04-30T05:34:02.877Z,10.19
2024-04-30T05:44:02.787Z,11.05
2024-04-30T05:54:02.783Z,11.84
2024-04-30T06:04:02.838Z,13.39
2024-04-30T06:14:02.737Z,13.98
2024-04-30T06:24:02.911Z,14.51
2024-04-30T06:34:02.940Z,14.93
2024-04-30T06:44:02.645Z,16.3
2024-04-30T06:54:02.826Z,17.22
2024-04-30T07:04:02.690Z,16.85
2024-04-30T07:14:02.641Z,16.48
2024-04-30T07:24:02.704Z,16.17
2024-04-30T07:34:02.812Z,16.68
2024-04-30T07:44:02.617Z,17.11
2024-04-30T07:54:02.646Z,17.59
2024-04-30T08:04:02.707Z,17.86
2024-04-30T08:14:02.707Z,18.78
2024-04-30T08:24:02.752Z,19.12
2024-04-30T08:34:02.608Z,19.49
2024-04-30T08:44:02.659Z,20.29
2024-04-30T08:54:02.550Z,20.75
2024-04-30T09:04:02.668Z,21.02
2024-04-30T09:14:02.601Z,21.74
2024-04-30T09:24:02.651Z,22.47
2024-04-30T09:34:02.516Z,22.51
2024-04-30T09:44:02.528Z,23.12
2024-04-30T09:54:02.573Z,23.1
2024-04-30T10:04:02.606Z,23.58
2024-04-30T10:14:02.491Z,23.77
2024-04-30T10:24:02.458Z,24.12
2024-04-30T10:34:02.490Z,24.26
2024-04-30T10:44:02.560Z,24.59
2024-04-30T10:54:02.609Z,25.09
2024-04-30T11:04:02.418Z,25.18
2024-04-30T11:14:02.273Z,24.94
2024-04-30T11:24:02.423Z,25.08
2024-04-30T11:34:02.375Z,25.56
2024-04-30T11:44:02.334Z,26.11
2024-04-30T11:54:02.374Z,25.32
2024-04-30T12:04:02.308Z,25.65
2024-04-30T12:14:02.363Z,25.79
2024-04-30T12:24:02.518Z,24.43
2024-04-30T12:34:02.322Z,23.7
2024-04-30T12:44:02.464Z,24.76
2024-04-30T12:54:02.290Z,24.56
2024-04-30T13:04:02.388Z,25.31
2024-04-30T13:14:02.367Z,26.25
2024-04-30T13:24:02.231Z,25.73
2024-04-30T13:34:02.300Z,26.21
2024-04-30T13:44:02.339Z,27.03
2024-04-30T13:54:02.228Z,26.79
2024-04-30T14:04:02.323Z,26.51
2024-04-30T14:14:04.753Z,25.49
2024-04-30T14:24:02.187Z,25.22
2024-04-30T14:34:02.213Z,25.04
2024-04-30T14:44:02.447Z,24.92
2024-04-30T14:54:02.162Z,24.84
2024-04-30T15:04:02.136Z,24.8
2024-04-30T15:14:02.211Z,24.78
2024-04-30T15:24:01.984Z,24.69
2024-04-30T15:34:02.192Z,24.89
2024-04-30T15:44:02.065Z,26.13
2024-04-30T15:54:02.051Z,26.03
2024-04-30T16:04:02.140Z,26.09
2024-04-30T16:14:02.033Z,26.04
2024-04-30T16:24:02.218Z,25.9
2024-04-30T16:34:02.013Z,25.65
2024-04-30T16:44:01.883Z,24.96
2024-04-30T16:54:01.894Z,24.48
2024-04-30T17:04:02.148Z,23.82
2024-04-30T17:14:02.009Z,22.85
2024-04-30T17:24:01.850Z,21.93
2024-04-30T17:34:01.958Z,21.18
2024-04-30T17:44:01.909Z,20.58
2024-04-30T17:54:02.019Z,20.13
2024-04-30T18:14:01.954Z,19.45
2024-04-30T18:24:01.882Z,19.06
2024-04-30T18:34:02.023Z,18.66
2024-04-30T18:44:01.882Z,18.19
2024-04-30T19:04:01.887Z,17.77
2024-04-30T19:14:01.834Z,17.43
2024-04-30T19:24:01.810Z,17.23
2024-04-30T19:34:01.895Z,17.12
2024-04-30T19:44:01.776Z,16.76
2024-04-30T19:54:01.899Z,16.8
2024-04-30T20:04:01.820Z,16.64
2024-04-30T20:14:01.768Z,16.45
2024-04-30T20:24:01.880Z,16.42
2024-04-30T20:34:01.823Z,16.4
2024-04-30T20:44:01.748Z,15.98
2024-04-30T20:54:01.811Z,15.45
2024-04-30T21:04:01.834Z,14.94
2024-04-30T21:14:01.718Z,14.36
2024-04-30T21:24:01.802Z,13.88
2024-04-30T21:34:01.763Z,13.77
2024-04-30T21:44:01.672Z,13.45
2024-04-30T21:54:01.664Z,13.09
2024-04-30T22:04:01.677Z,12.9
2024-04-30T22:14:01.657Z,13.14
2024-04-30T22:24:01.590Z,13.16
2024-04-30T22:34:01.742Z,12.98
2024-04-30T22:44:01.579Z,12.68
2024-04-30T22:54:01.751Z,12.54
2024-04-30T23:04:01.726Z,12.33
2024-04-30T23:14:01.734Z,12.28
2024-04-30T23:24:01.689Z,12.52
2024-04-30T23:34:01.689Z,12.44
2024-04-30T23:44:01.694Z,12.14
2024-04-30T23:54:01.857Z,11.96
